Vandalia, Montana
Current Conditions -  °F | °C
As of 10:53 PM on Saturday 25 Oct 2014 (Local Time) from KGGW Reporting Station
Clear Clear  
Wind Chill: 50°   Ceiling: Unl
Heat Index: 50°   Visibility: 10mi
Dew Point: 32°   Wind: 17mph
Humidity: 50%   Direction: 110°ESE
Pressure: 29.61"   Gusts: NA
Location:  48.35°N, 106.92°W
Report Text: KGGW 260453Z AUTO 11015KT 10SM CLR 10/00 A2961 RMK AO2 SLP030 T01000000 $
Loading
Personal Weather Stations






























Interactive Weather Map
Tropical Storm Tracking
New forecast layout! Learn more

10-Day Weather Forecast

Advertisements
Track Severe Weather on mobile